Thomson Dream — 9HA2381 — position and weather

sailwx.info

Track history (hours):
 
Tides and Currents Weather Stations Pressure Air Temp Water Temp Dewpoint Dewpoint Depression Visibility Wind Speed Wind Dir Waves Ship Positions

Thomson Dream

Last reported at 2014-Nov-23 18:33 UTC. Time now 2014-Nov-23 19:01 UTC.
Position N 37°52' W 009°30'.

Length 243 m; draft 7.6 m.

Type: Ship. MMSI: 248480975.

Date/timePositionNaut miles runAvg speedWind from/ knotsBaromVisibWave heightAir tempDewpointWater temp
2014-Nov-23 18:33N 37°52' W 009°30'1616.1
2014-Nov-23 17:33N 38°08' W 009°27'1615.6
2014-Nov-23 16:33N 38°24' W 009°25'1515.1
2014-Nov-23 15:33N 38°38' W 009°21'9 8.9
2014-Nov-23 14:33N 38°41' W 009°10'2 2.3
2014-Nov-23 13:31N 38°43' W 009°08'0 0.0
2014-Nov-23 12:31N 38°43' W 009°08'0 0.0
2014-Nov-23 11:31N 38°43' W 009°08'0 0.0
2014-Nov-23 10:31N 38°43' W 009°08'0 0.0
2014-Nov-23 09:31N 38°43' W 009°08'0 0.0
2014-Nov-23 08:31N 38°43' W 009°08'0 0.0
2014-Nov-23 07:31N 38°43' W 009°08'1 0.7
2014-Nov-23 06:34N 38°42' W 009°08'7 6.6
2014-Nov-23 05:33N 38°41' W 009°17'1611.8
2014-Nov-23 04:14N 38°34' W 009°35'21 0.6
2014-Nov-21 18:22N 38°14' W 009°39'1316.2
2014-Nov-21 17:33N 38°01' W 009°35'1616.4
2014-Nov-21 16:33N 37°45' W 009°31'1716.5
2014-Nov-21 15:33N 37°29' W 009°28'5814.4
2014-Nov-21 11:33N 36°40' W 008°48'16216.1
2014-Nov-21 01:28N 35°59' W 005°34'1415.2
2014-Nov-21 00:33N 36°03' W 005°17'226 5.3
2014-Nov-19 06:12N 37°35' W 000°59'6 7.7
2014-Nov-19 05:25N 37°31' W 000°54'1112.1
2014-Nov-19 04:33N 37°31' W 000°41'1010.4
2014-Nov-19 03:33N 37°38' W 000°31'1210.9
2014-Nov-19 02:27N 37°48' W 000°22'1010.8
2014-Nov-19 01:33N 37°56' W 000°15'91 9.6
2014-Nov-18 16:04N 39°27' W 000°19'0 0.0
2014-Nov-18 15:25N 39°27' W 000°19'0 0.0
2014-Nov-18 14:22N 39°27' W 000°19'0 0.0
2014-Nov-18 13:31N 39°27' W 000°19'0 0.0
2014-Nov-18 12:28N 39°27' W 000°19'0 0.0
2014-Nov-18 11:31N 39°27' W 000°19'0 0.0
2014-Nov-18 10:31N 39°27' W 000°19'0 0.0
2014-Nov-18 09:22N 39°27' W 000°19'0 0.0
2014-Nov-18 08:22N 39°27' W 000°19'0 0.0
2014-Nov-18 07:31N 39°27' W 000°19'0 0.5
2014-Nov-18 06:34N 39°27' W 000°19'7 6.6
2014-Nov-18 05:33N 39°25' W 000°11'9212.7
2014-Nov-17 22:18N 39°23' E 001°49'1215.5
2014-Nov-17 21:33N 39°23' E 002°04'1515.4
2014-Nov-17 20:33N 39°25' E 002°23'1313.4
2014-Nov-17 19:33N 39°31' E 002°39'2 1.9
2014-Nov-17 18:31N 39°33' E 002°38'0 0.0
2014-Nov-17 17:31N 39°33' E 002°38'0 0.0
2014-Nov-17 16:31N 39°33' E 002°38'0 0.0
2014-Nov-17 15:31N 39°33' E 002°38'0 0.0
2014-Nov-17 14:31N 39°33' E 002°38'0 0.0
2014-Nov-17 13:31N 39°33' E 002°38'0 0.0
2014-Nov-17 12:31N 39°33' E 002°38'0 0.1
2014-Nov-17 11:33N 39°33' E 002°38'5 5.3
2014-Nov-17 10:33N 39°28' E 002°36'1414.4
2014-Nov-17 09:33N 39°28' E 002°18'1515.0
2014-Nov-17 08:33N 39°43' E 002°23'1616.4
2014-Nov-17 07:33N 39°55' E 002°36'1616.4
2014-Nov-17 06:33N 40°08' E 002°50'1616.0
2014-Nov-17 05:33N 40°21' E 003°03'1616.3
2014-Nov-17 04:33N 40°33' E 003°16'1716.7
2014-Nov-17 03:33N 40°46' E 003°30'10016.7
2014-Nov-16 21:33N 42°04' E 004°55'1916.2
2014-Nov-16 20:25N 42°19' E 005°10'1616.1
2014-Nov-16 19:26N 42°31' E 005°24'3216.9
2014-Nov-16 17:33N 42°56' E 005°51'1010.5
2014-Nov-16 16:33N 43°06' E 005°55'1 1.4
2014-Nov-16 15:31N 43°07' E 005°56'0 0.0
2014-Nov-16 14:31N 43°07' E 005°56'0 0.0
2014-Nov-16 13:31N 43°07' E 005°56'0 0.0
2014-Nov-16 12:31N 43°07' E 005°56'0 0.0
2014-Nov-16 11:31N 43°07' E 005°56'0 0.0
2014-Nov-16 10:31N 43°07' E 005°56'0 0.0
2014-Nov-16 09:31N 43°07' E 005°56'0 0.0
2014-Nov-16 08:31N 43°07' E 005°56'1 0.7
2014-Nov-16 07:33N 43°06' E 005°55'6 6.2
2014-Nov-16 06:33N 43°01' E 005°59'1010.0
2014-Nov-16 05:34N 42°56' E 005°47'1514.8
2014-Nov-16 04:34N 42°48' E 005°30'10015.4
2014-Nov-15 22:04N 41°55' E 003°35'4015.7
2014-Nov-15 19:33N 41°33' E 002°51'1615.6
2014-Nov-15 18:32N 41°24' E 002°34'1715.5
2014-Nov-15 17:27N 41°14' E 002°15'7 1.2
2014-Nov-15 11:19N 41°21' E 002°10'26 3.3
2014-Nov-15 03:29N 40°57' E 001°58'1010.3
2014-Nov-15 02:33N 40°48' E 001°53'1010.5
2014-Nov-15 01:33N 40°39' E 001°46'1110.7
2014-Nov-15 00:34N 40°29' E 001°40'1110.8
2014-Nov-14 23:33N 40°20' E 001°33'1110.6
2014-Nov-14 22:33N 40°10' E 001°27'1110.5
2014-Nov-14 21:33N 40°01' E 001°21'1010.3
2014-Nov-14 20:33N 39°52' E 001°14'1312.9
2014-Nov-14 19:31N 39°40' E 001°07'1616.2
2014-Nov-14 18:33N 39°27' E 000°56'1716.4
2014-Nov-14 17:30N 39°11' E 000°45'8215.9
2014-Nov-14 12:20N 37°59' W 000°03'1215.5
2014-Nov-14 11:32N 37°51' W 000°15'1615.7
2014-Nov-14 10:33N 37°38' W 000°26'1615.5
2014-Nov-14 09:33N 37°27' W 000°40'1616.0
2014-Nov-14 08:33N 37°16' W 000°54'  
Track history (hours):
 
Tides and Currents Weather Stations Pressure Air Temp Water Temp Dewpoint Dewpoint Depression Visibility Wind Speed Wind Dir Waves Ship Positions

Thomson Dream

Last reported at 2014-Nov-23 18:33 UTC. Time now 2014-Nov-23 19:01 UTC.
Position N 37°52' W 009°30'.

Length 243 m; draft 7.6 m.

Type: Ship. MMSI: 248480975.

Date/timePositionNaut miles runAvg speedWind from/ knotsBaromVisibWave heightAir tempDewpointWater temp
2014-Nov-23 18:33N 37°52' W 009°30'1616.1
2014-Nov-23 17:33N 38°08' W 009°27'1615.6
2014-Nov-23 16:33N 38°24' W 009°25'1515.1
2014-Nov-23 15:33N 38°38' W 009°21'9 8.9
2014-Nov-23 14:33N 38°41' W 009°10'2 2.3
2014-Nov-23 13:31N 38°43' W 009°08'0 0.0
2014-Nov-23 12:31N 38°43' W 009°08'0 0.0
2014-Nov-23 11:31N 38°43' W 009°08'0 0.0
2014-Nov-23 10:31N 38°43' W 009°08'0 0.0
2014-Nov-23 09:31N 38°43' W 009°08'0 0.0
2014-Nov-23 08:31N 38°43' W 009°08'0 0.0
2014-Nov-23 07:31N 38°43' W 009°08'1 0.7
2014-Nov-23 06:34N 38°42' W 009°08'7 6.6
2014-Nov-23 05:33N 38°41' W 009°17'1611.8
2014-Nov-23 04:14N 38°34' W 009°35'21 0.6
2014-Nov-21 18:22N 38°14' W 009°39'1316.2
2014-Nov-21 17:33N 38°01' W 009°35'1616.4
2014-Nov-21 16:33N 37°45' W 009°31'1716.5
2014-Nov-21 15:33N 37°29' W 009°28'5814.4
2014-Nov-21 11:33N 36°40' W 008°48'16216.1
2014-Nov-21 01:28N 35°59' W 005°34'1415.2
2014-Nov-21 00:33N 36°03' W 005°17'226 5.3
2014-Nov-19 06:12N 37°35' W 000°59'6 7.7
2014-Nov-19 05:25N 37°31' W 000°54'1112.1
2014-Nov-19 04:33N 37°31' W 000°41'1010.4
2014-Nov-19 03:33N 37°38' W 000°31'1210.9
2014-Nov-19 02:27N 37°48' W 000°22'1010.8
2014-Nov-19 01:33N 37°56' W 000°15'91 9.6
2014-Nov-18 16:04N 39°27' W 000°19'0 0.0
2014-Nov-18 15:25N 39°27' W 000°19'0 0.0
2014-Nov-18 14:22N 39°27' W 000°19'0 0.0
2014-Nov-18 13:31N 39°27' W 000°19'0 0.0
2014-Nov-18 12:28N 39°27' W 000°19'0 0.0
2014-Nov-18 11:31N 39°27' W 000°19'0 0.0
2014-Nov-18 10:31N 39°27' W 000°19'0 0.0
2014-Nov-18 09:22N 39°27' W 000°19'0 0.0
2014-Nov-18 08:22N 39°27' W 000°19'0 0.0
2014-Nov-18 07:31N 39°27' W 000°19'0 0.5
2014-Nov-18 06:34N 39°27' W 000°19'7 6.6
2014-Nov-18 05:33N 39°25' W 000°11'9212.7
2014-Nov-17 22:18N 39°23' E 001°49'1215.5
2014-Nov-17 21:33N 39°23' E 002°04'1515.4
2014-Nov-17 20:33N 39°25' E 002°23'1313.4
2014-Nov-17 19:33N 39°31' E 002°39'2 1.9
2014-Nov-17 18:31N 39°33' E 002°38'0 0.0
2014-Nov-17 17:31N 39°33' E 002°38'0 0.0
2014-Nov-17 16:31N 39°33' E 002°38'0 0.0
2014-Nov-17 15:31N 39°33' E 002°38'0 0.0
2014-Nov-17 14:31N 39°33' E 002°38'0 0.0
2014-Nov-17 13:31N 39°33' E 002°38'0 0.0
2014-Nov-17 12:31N 39°33' E 002°38'0 0.1
2014-Nov-17 11:33N 39°33' E 002°38'5 5.3
2014-Nov-17 10:33N 39°28' E 002°36'1414.4
2014-Nov-17 09:33N 39°28' E 002°18'1515.0
2014-Nov-17 08:33N 39°43' E 002°23'1616.4
2014-Nov-17 07:33N 39°55' E 002°36'1616.4
2014-Nov-17 06:33N 40°08' E 002°50'1616.0
2014-Nov-17 05:33N 40°21' E 003°03'1616.3
2014-Nov-17 04:33N 40°33' E 003°16'1716.7
2014-Nov-17 03:33N 40°46' E 003°30'10016.7
2014-Nov-16 21:33N 42°04' E 004°55'1916.2
2014-Nov-16 20:25N 42°19' E 005°10'1616.1
2014-Nov-16 19:26N 42°31' E 005°24'3216.9
2014-Nov-16 17:33N 42°56' E 005°51'1010.5
2014-Nov-16 16:33N 43°06' E 005°55'1 1.4
2014-Nov-16 15:31N 43°07' E 005°56'0 0.0
2014-Nov-16 14:31N 43°07' E 005°56'0 0.0
2014-Nov-16 13:31N 43°07' E 005°56'0 0.0
2014-Nov-16 12:31N 43°07' E 005°56'0 0.0
2014-Nov-16 11:31N 43°07' E 005°56'0 0.0
2014-Nov-16 10:31N 43°07' E 005°56'0 0.0
2014-Nov-16 09:31N 43°07' E 005°56'0 0.0
2014-Nov-16 08:31N 43°07' E 005°56'1 0.7
2014-Nov-16 07:33N 43°06' E 005°55'6 6.2
2014-Nov-16 06:33N 43°01' E 005°59'1010.0
2014-Nov-16 05:34N 42°56' E 005°47'1514.8
2014-Nov-16 04:34N 42°48' E 005°30'10015.4
2014-Nov-15 22:04N 41°55' E 003°35'4015.7
2014-Nov-15 19:33N 41°33' E 002°51'1615.6
2014-Nov-15 18:32N 41°24' E 002°34'1715.5
2014-Nov-15 17:27N 41°14' E 002°15'7 1.2
2014-Nov-15 11:19N 41°21' E 002°10'26 3.3
2014-Nov-15 03:29N 40°57' E 001°58'1010.3
2014-Nov-15 02:33N 40°48' E 001°53'1010.5
2014-Nov-15 01:33N 40°39' E 001°46'1110.7
2014-Nov-15 00:34N 40°29' E 001°40'1110.8
2014-Nov-14 23:33N 40°20' E 001°33'1110.6
2014-Nov-14 22:33N 40°10' E 001°27'1110.5
2014-Nov-14 21:33N 40°01' E 001°21'1010.3
2014-Nov-14 20:33N 39°52' E 001°14'1312.9
2014-Nov-14 19:31N 39°40' E 001°07'1616.2
2014-Nov-14 18:33N 39°27' E 000°56'1716.4
2014-Nov-14 17:30N 39°11' E 000°45'8215.9
2014-Nov-14 12:20N 37°59' W 000°03'1215.5
2014-Nov-14 11:32N 37°51' W 000°15'1615.7
2014-Nov-14 10:33N 37°38' W 000°26'1615.5
2014-Nov-14 09:33N 37°27' W 000°40'1616.0
2014-Nov-14 08:33N 37°16' W 000°54'  

Dump ship's entire track history